KLPC/LPC METAR and TAF weather

Enter ICAO airport designator
Station Type Date Time Source
KLPC METAR 2022/05/26 04:56 UTC NOAA

KLPC 260456Z AUTO 33003KT 10SM OVC005 14/13 A2991 RMK AO2 SLP131 T01390128


Station Type Date Time Source
KLPC Decoded METAR 2022/05/26 04:56 UTC NOAA

Lompoc, Lompoc Airport, CA, United States (KLPC) 34-40N 120-28W
May 26, 2022 - 12:56 AM EDT / 2022.05.26 0456 UTC
Wind: from the NNW (330 degrees) at 3 MPH (3 KT):0
Visibility: 10 mile(s):0
Sky conditions: overcast
Temperature: 57.0 F (13.9 C)
Dew Point: 55.0 F (12.8 C)
Relative Humidity: 93%
Pressure (altimeter): 29.91 in. Hg (1012 hPa)
ob: KLPC 260456Z AUTO 33003KT 10SM OVC005 14/13 A2991 RMK AO2 SLP131 T01390128
cycle: 5

Station Type Date Time Source
KLPC TAF UTC NOAA

Error!

Example: see airport list